sensor_id;sensor_type;location;lat;lon;timestamp;P1;durP1;ratioP1;P2;durP2;ratioP2
3068;SDS011;1545;51.728;8.796;2022-10-23T00:01:25;16.90;;;4.47;;
3068;SDS011;1545;51.728;8.796;2022-10-23T00:04:04;10.13;;;4.00;;
3068;SDS011;1545;51.728;8.796;2022-10-23T00:06:35;22.37;;;4.80;;
3068;SDS011;1545;51.728;8.796;2022-10-23T00:09:01;12.70;;;3.97;;
3068;SDS011;1545;51.728;8.796;2022-10-23T00:11:29;22.23;;;4.70;;
3068;SDS011;1545;51.728;8.796;2022-10-23T00:13:56;18.77;;;4.27;;
3068;SDS011;1545;51.728;8.796;2022-10-23T00:16:23;10.83;;;4.20;;
3068;SDS011;1545;51.728;8.796;2022-10-23T00:18:48;21.77;;;4.50;;
3068;SDS011;1545;51.728;8.796;2022-10-23T00:21:14;16.90;;;4.50;;
3068;SDS011;1545;51.728;8.796;2022-10-23T00:23:41;19.33;;;4.07;;
3068;SDS011;1545;51.728;8.796;2022-10-23T00:26:07;13.47;;;4.60;;
3068;SDS011;1545;51.728;8.796;2022-10-23T00:28:35;22.40;;;4.97;;
3068;SDS011;1545;51.728;8.796;2022-10-23T00:31:02;26.50;;;4.47;;
3068;SDS011;1545;51.728;8.796;2022-10-23T00:33:29;19.53;;;4.10;;
3068;SDS011;1545;51.728;8.796;2022-10-23T00:35:55;16.33;;;4.37;;
3068;SDS011;1545;51.728;8.796;2022-10-23T00:38:21;14.13;;;4.13;;
3068;SDS011;1545;51.728;8.796;2022-10-23T00:40:47;10.07;;;3.90;;
3068;SDS011;1545;51.728;8.796;2022-10-23T00:43:16;12.07;;;3.90;;
3068;SDS011;1545;51.728;8.796;2022-10-23T00:45:46;17.73;;;3.60;;
3068;SDS011;1545;51.728;8.796;2022-10-23T00:48:12;27.30;;;3.80;;
3068;SDS011;1545;51.728;8.796;2022-10-23T00:50:38;12.70;;;3.63;;
3068;SDS011;1545;51.728;8.796;2022-10-23T00:53:05;12.33;;;3.83;;
3068;SDS011;1545;51.728;8.796;2022-10-23T00:55:34;8.07;;;3.63;;
3068;SDS011;1545;51.728;8.796;2022-10-23T00:58:02;12.27;;;3.80;;
3068;SDS011;1545;51.728;8.796;2022-10-23T01:00:29;9.93;;;3.90;;
3068;SDS011;1545;51.728;8.796;2022-10-23T01:03:04;11.03;;;3.80;;
3068;SDS011;1545;51.728;8.796;2022-10-23T01:05:30;12.10;;;3.83;;
3068;SDS011;1545;51.728;8.796;2022-10-23T01:08:32;13.77;;;3.90;;
3068;SDS011;1545;51.728;8.796;2022-10-23T01:11:08;13.40;;;3.80;;
3068;SDS011;1545;51.728;8.796;2022-10-23T01:13:59;14.33;;;3.93;;
3068;SDS011;1545;51.728;8.796;2022-10-23T01:16:32;11.53;;;3.40;;
3068;SDS011;1545;51.728;8.796;2022-10-23T01:19:20;20.60;;;4.80;;
3068;SDS011;1545;51.728;8.796;2022-10-23T01:22:50;13.87;;;3.87;;
3068;SDS011;1545;51.728;8.796;2022-10-23T01:25:06;21.10;;;4.23;;
3068;SDS011;1545;51.728;8.796;2022-10-23T01:27:46;13.00;;;3.80;;
3068;SDS011;1545;51.728;8.796;2022-10-23T01:30:16;16.03;;;4.20;;
3068;SDS011;1545;51.728;8.796;2022-10-23T01:35:19;26.60;;;3.60;;
3068;SDS011;1545;51.728;8.796;2022-10-23T01:37:55;25.07;;;4.83;;
3068;SDS011;1545;51.728;8.796;2022-10-23T01:40:36;15.63;;;3.90;;
3068;SDS011;1545;51.728;8.796;2022-10-23T01:43:13;13.03;;;3.90;;
3068;SDS011;1545;51.728;8.796;2022-10-23T01:45:50;22.47;;;4.13;;
3068;SDS011;1545;51.728;8.796;2022-10-23T01:48:21;11.43;;;4.03;;
3068;SDS011;1545;51.728;8.796;2022-10-23T01:50:52;16.97;;;4.10;;
3068;SDS011;1545;51.728;8.796;2022-10-23T01:53:21;13.63;;;3.77;;
3068;SDS011;1545;51.728;8.796;2022-10-23T01:55:48;21.57;;;3.80;;
3068;SDS011;1545;51.728;8.796;2022-10-23T01:58:14;15.27;;;3.70;;
3068;SDS011;1545;51.728;8.796;2022-10-23T02:00:43;27.77;;;3.93;;
3068;SDS011;1545;51.728;8.796;2022-10-23T02:03:10;17.33;;;3.97;;
3068;SDS011;1545;51.728;8.796;2022-10-23T02:05:38;14.00;;;4.00;;
3068;SDS011;1545;51.728;8.796;2022-10-23T02:08:04;15.37;;;4.20;;
3068;SDS011;1545;51.728;8.796;2022-10-23T02:10:32;16.43;;;4.20;;
3068;SDS011;1545;51.728;8.796;2022-10-23T02:13:24;24.40;;;4.53;;
3068;SDS011;1545;51.728;8.796;2022-10-23T02:16:15;12.47;;;3.90;;
3068;SDS011;1545;51.728;8.796;2022-10-23T02:21:33;18.20;;;4.13;;
3068;SDS011;1545;51.728;8.796;2022-10-23T02:24:13;20.57;;;4.90;;
3068;SDS011;1545;51.728;8.796;2022-10-23T02:26:42;20.57;;;4.60;;
3068;SDS011;1545;51.728;8.796;2022-10-23T02:29:17;17.57;;;4.03;;
3068;SDS011;1545;51.728;8.796;2022-10-23T02:32:06;13.13;;;4.27;;
3068;SDS011;1545;51.728;8.796;2022-10-23T02:34:33;11.17;;;4.10;;
3068;SDS011;1545;51.728;8.796;2022-10-23T02:36:59;10.40;;;4.23;;
3068;SDS011;1545;51.728;8.796;2022-10-23T02:39:26;8.70;;;3.70;;
3068;SDS011;1545;51.728;8.796;2022-10-23T02:42:08;11.87;;;4.30;;
3068;SDS011;1545;51.728;8.796;2022-10-23T02:45:04;14.93;;;4.53;;
3068;SDS011;1545;51.728;8.796;2022-10-23T02:53:02;15.17;;;4.53;;
3068;SDS011;1545;51.728;8.796;2022-10-23T02:58:50;13.77;;;4.73;;
3068;SDS011;1545;51.728;8.796;2022-10-23T03:01:57;20.87;;;4.90;;
3068;SDS011;1545;51.728;8.796;2022-10-23T03:04:38;18.07;;;4.27;;
3068;SDS011;1545;51.728;8.796;2022-10-23T03:07:09;13.57;;;4.37;;
3068;SDS011;1545;51.728;8.796;2022-10-23T03:09:37;17.07;;;4.30;;
3068;SDS011;1545;51.728;8.796;2022-10-23T03:12:03;16.50;;;4.60;;
3068;SDS011;1545;51.728;8.796;2022-10-23T03:14:28;10.67;;;4.60;;
3068;SDS011;1545;51.728;8.796;2022-10-23T03:16:54;14.27;;;4.63;;
3068;SDS011;1545;51.728;8.796;2022-10-23T03:19:19;10.43;;;4.27;;
3068;SDS011;1545;51.728;8.796;2022-10-23T03:21:45;11.73;;;4.33;;
3068;SDS011;1545;51.728;8.796;2022-10-23T03:24:10;27.70;;;5.20;;
3068;SDS011;1545;51.728;8.796;2022-10-23T03:26:36;16.73;;;4.90;;
3068;SDS011;1545;51.728;8.796;2022-10-23T03:29:01;30.53;;;5.23;;
3068;SDS011;1545;51.728;8.796;2022-10-23T03:31:27;20.63;;;4.40;;
3068;SDS011;1545;51.728;8.796;2022-10-23T03:33:52;13.60;;;4.10;;
3068;SDS011;1545;51.728;8.796;2022-10-23T03:36:18;16.60;;;4.83;;
3068;SDS011;1545;51.728;8.796;2022-10-23T03:38:43;21.00;;;4.77;;
3068;SDS011;1545;51.728;8.796;2022-10-23T03:41:09;16.50;;;4.30;;
3068;SDS011;1545;51.728;8.796;2022-10-23T03:43:34;16.30;;;4.43;;
3068;SDS011;1545;51.728;8.796;2022-10-23T03:46:00;20.60;;;4.53;;
3068;SDS011;1545;51.728;8.796;2022-10-23T03:48:26;15.57;;;5.07;;
3068;SDS011;1545;51.728;8.796;2022-10-23T03:50:52;16.70;;;5.03;;
3068;SDS011;1545;51.728;8.796;2022-10-23T03:53:17;18.40;;;4.63;;
3068;SDS011;1545;51.728;8.796;2022-10-23T03:55:43;12.00;;;4.60;;
3068;SDS011;1545;51.728;8.796;2022-10-23T03:58:09;14.40;;;4.87;;
3068;SDS011;1545;51.728;8.796;2022-10-23T04:00:35;11.30;;;5.00;;
3068;SDS011;1545;51.728;8.796;2022-10-23T04:03:00;14.60;;;4.67;;
3068;SDS011;1545;51.728;8.796;2022-10-23T04:05:26;14.07;;;4.87;;
3068;SDS011;1545;51.728;8.796;2022-10-23T04:07:51;17.80;;;4.77;;
3068;SDS011;1545;51.728;8.796;2022-10-23T04:10:17;13.77;;;4.60;;
3068;SDS011;1545;51.728;8.796;2022-10-23T04:12:43;15.97;;;5.20;;
3068;SDS011;1545;51.728;8.796;2022-10-23T04:15:08;15.33;;;5.43;;
3068;SDS011;1545;51.728;8.796;2022-10-23T04:17:34;17.40;;;5.27;;
3068;SDS011;1545;51.728;8.796;2022-10-23T04:19:59;15.80;;;5.37;;
3068;SDS011;1545;51.728;8.796;2022-10-23T04:22:25;12.13;;;4.43;;
3068;SDS011;1545;51.728;8.796;2022-10-23T04:24:51;20.73;;;4.60;;
3068;SDS011;1545;51.728;8.796;2022-10-23T04:27:16;17.53;;;5.50;;
3068;SDS011;1545;51.728;8.796;2022-10-23T04:29:42;20.47;;;4.90;;
3068;SDS011;1545;51.728;8.796;2022-10-23T04:32:07;12.50;;;4.97;;
3068;SDS011;1545;51.728;8.796;2022-10-23T04:34:33;20.17;;;5.17;;
3068;SDS011;1545;51.728;8.796;2022-10-23T04:36:58;17.03;;;5.77;;
3068;SDS011;1545;51.728;8.796;2022-10-23T04:39:24;19.93;;;5.20;;
3068;SDS011;1545;51.728;8.796;2022-10-23T04:41:49;27.77;;;5.70;;
3068;SDS011;1545;51.728;8.796;2022-10-23T04:44:15;24.47;;;5.93;;
3068;SDS011;1545;51.728;8.796;2022-10-23T04:46:41;16.17;;;5.13;;
3068;SDS011;1545;51.728;8.796;2022-10-23T04:49:06;14.13;;;5.53;;
3068;SDS011;1545;51.728;8.796;2022-10-23T04:51:32;21.30;;;6.33;;
3068;SDS011;1545;51.728;8.796;2022-10-23T04:53:57;14.47;;;5.80;;
3068;SDS011;1545;51.728;8.796;2022-10-23T04:56:23;14.23;;;5.80;;
3068;SDS011;1545;51.728;8.796;2022-10-23T04:58:49;12.03;;;6.17;;
3068;SDS011;1545;51.728;8.796;2022-10-23T05:01:15;20.43;;;6.60;;
3068;SDS011;1545;51.728;8.796;2022-10-23T05:03:40;15.37;;;6.33;;
3068;SDS011;1545;51.728;8.796;2022-10-23T05:06:06;18.53;;;6.17;;
3068;SDS011;1545;51.728;8.796;2022-10-23T05:08:32;18.60;;;6.20;;
3068;SDS011;1545;51.728;8.796;2022-10-23T05:10:57;22.73;;;6.30;;
3068;SDS011;1545;51.728;8.796;2022-10-23T05:13:23;22.60;;;5.70;;
3068;SDS011;1545;51.728;8.796;2022-10-23T05:15:49;18.87;;;6.20;;
3068;SDS011;1545;51.728;8.796;2022-10-23T05:18:35;14.73;;;5.87;;
3068;SDS011;1545;51.728;8.796;2022-10-23T05:21:08;17.80;;;5.37;;
3068;SDS011;1545;51.728;8.796;2022-10-23T05:23:41;14.70;;;5.70;;
3068;SDS011;1545;51.728;8.796;2022-10-23T05:26:09;13.43;;;6.20;;
3068;SDS011;1545;51.728;8.796;2022-10-23T05:28:34;19.00;;;5.77;;
3068;SDS011;1545;51.728;8.796;2022-10-23T05:31:01;12.53;;;6.13;;
3068;SDS011;1545;51.728;8.796;2022-10-23T05:33:29;11.47;;;5.97;;
3068;SDS011;1545;51.728;8.796;2022-10-23T05:35:56;13.53;;;6.50;;
3068;SDS011;1545;51.728;8.796;2022-10-23T05:38:22;17.57;;;6.53;;
3068;SDS011;1545;51.728;8.796;2022-10-23T05:40:50;19.23;;;6.23;;
3068;SDS011;1545;51.728;8.796;2022-10-23T05:43:16;15.27;;;6.73;;
3068;SDS011;1545;51.728;8.796;2022-10-23T05:45:41;16.00;;;7.83;;
3068;SDS011;1545;51.728;8.796;2022-10-23T05:48:07;22.60;;;7.50;;
3068;SDS011;1545;51.728;8.796;2022-10-23T05:50:36;17.33;;;7.70;;
3068;SDS011;1545;51.728;8.796;2022-10-23T05:53:02;17.17;;;7.90;;
3068;SDS011;1545;51.728;8.796;2022-10-23T05:55:27;23.17;;;8.13;;
3068;SDS011;1545;51.728;8.796;2022-10-23T05:57:53;20.13;;;8.03;;
3068;SDS011;1545;51.728;8.796;2022-10-23T06:00:19;13.33;;;7.67;;
3068;SDS011;1545;51.728;8.796;2022-10-23T06:02:45;13.47;;;7.67;;
3068;SDS011;1545;51.728;8.796;2022-10-23T06:05:10;15.50;;;7.47;;
3068;SDS011;1545;51.728;8.796;2022-10-23T06:07:36;32.43;;;8.90;;
3068;SDS011;1545;51.728;8.796;2022-10-23T06:10:02;11.83;;;7.60;;
3068;SDS011;1545;51.728;8.796;2022-10-23T06:12:29;31.17;;;9.20;;
3068;SDS011;1545;51.728;8.796;2022-10-23T06:14:55;17.63;;;8.70;;
3068;SDS011;1545;51.728;8.796;2022-10-23T06:17:21;16.50;;;8.57;;
3068;SDS011;1545;51.728;8.796;2022-10-23T06:19:46;22.33;;;8.33;;
3068;SDS011;1545;51.728;8.796;2022-10-23T06:22:12;19.13;;;8.20;;
3068;SDS011;1545;51.728;8.796;2022-10-23T06:24:37;17.23;;;7.67;;
3068;SDS011;1545;51.728;8.796;2022-10-23T06:27:03;19.73;;;7.50;;
3068;SDS011;1545;51.728;8.796;2022-10-23T06:29:29;13.23;;;7.27;;
3068;SDS011;1545;51.728;8.796;2022-10-23T06:31:54;14.07;;;7.20;;
3068;SDS011;1545;51.728;8.796;2022-10-23T06:34:20;16.50;;;7.20;;
3068;SDS011;1545;51.728;8.796;2022-10-23T06:36:45;14.93;;;7.10;;
3068;SDS011;1545;51.728;8.796;2022-10-23T06:39:11;16.73;;;7.27;;
3068;SDS011;1545;51.728;8.796;2022-10-23T06:41:36;16.07;;;7.40;;
3068;SDS011;1545;51.728;8.796;2022-10-23T06:44:03;25.57;;;7.50;;
3068;SDS011;1545;51.728;8.796;2022-10-23T06:46:29;21.90;;;7.17;;
3068;SDS011;1545;51.728;8.796;2022-10-23T06:48:57;18.47;;;6.70;;
3068;SDS011;1545;51.728;8.796;2022-10-23T06:51:22;14.60;;;6.60;;
3068;SDS011;1545;51.728;8.796;2022-10-23T06:53:48;10.77;;;5.63;;
3068;SDS011;1545;51.728;8.796;2022-10-23T06:56:14;12.87;;;5.37;;
3068;SDS011;1545;51.728;8.796;2022-10-23T06:58:40;13.20;;;5.27;;
3068;SDS011;1545;51.728;8.796;2022-10-23T07:01:07;14.40;;;4.63;;
3068;SDS011;1545;51.728;8.796;2022-10-23T07:03:35;16.60;;;5.37;;
3068;SDS011;1545;51.728;8.796;2022-10-23T07:06:01;11.07;;;4.60;;
3068;SDS011;1545;51.728;8.796;2022-10-23T07:08:28;13.73;;;4.83;;
3068;SDS011;1545;51.728;8.796;2022-10-23T07:10:54;14.97;;;5.07;;
3068;SDS011;1545;51.728;8.796;2022-10-23T07:13:19;12.43;;;5.00;;
3068;SDS011;1545;51.728;8.796;2022-10-23T07:15:46;12.23;;;5.17;;
3068;SDS011;1545;51.728;8.796;2022-10-23T07:18:11;14.43;;;6.07;;
3068;SDS011;1545;51.728;8.796;2022-10-23T07:20:40;12.63;;;5.70;;
3068;SDS011;1545;51.728;8.796;2022-10-23T07:23:06;17.40;;;5.13;;
3068;SDS011;1545;51.728;8.796;2022-10-23T07:25:33;19.90;;;5.20;;
3068;SDS011;1545;51.728;8.796;2022-10-23T07:27:58;17.27;;;4.97;;
3068;SDS011;1545;51.728;8.796;2022-10-23T07:30:24;15.40;;;4.70;;
3068;SDS011;1545;51.728;8.796;2022-10-23T07:32:49;10.27;;;4.80;;
3068;SDS011;1545;51.728;8.796;2022-10-23T07:35:15;20.10;;;5.20;;
3068;SDS011;1545;51.728;8.796;2022-10-23T07:37:41;23.40;;;4.80;;
3068;SDS011;1545;51.728;8.796;2022-10-23T07:40:06;17.63;;;4.53;;
3068;SDS011;1545;51.728;8.796;2022-10-23T07:42:33;22.70;;;4.43;;
3068;SDS011;1545;51.728;8.796;2022-10-23T07:44:58;10.83;;;3.97;;
3068;SDS011;1545;51.728;8.796;2022-10-23T07:47:24;13.37;;;3.80;;
3068;SDS011;1545;51.728;8.796;2022-10-23T07:49:50;15.17;;;4.17;;
3068;SDS011;1545;51.728;8.796;2022-10-23T07:52:15;13.97;;;4.47;;
3068;SDS011;1545;51.728;8.796;2022-10-23T07:54:41;12.57;;;3.90;;
3068;SDS011;1545;51.728;8.796;2022-10-23T07:57:07;15.20;;;4.50;;
3068;SDS011;1545;51.728;8.796;2022-10-23T07:59:33;13.03;;;3.80;;
3068;SDS011;1545;51.728;8.796;2022-10-23T08:01:59;16.50;;;4.23;;
3068;SDS011;1545;51.728;8.796;2022-10-23T08:04:24;14.10;;;3.63;;
3068;SDS011;1545;51.728;8.796;2022-10-23T08:06:50;16.57;;;3.57;;
3068;SDS011;1545;51.728;8.796;2022-10-23T08:09:16;11.37;;;3.43;;
3068;SDS011;1545;51.728;8.796;2022-10-23T08:11:41;5.37;;;3.20;;
3068;SDS011;1545;51.728;8.796;2022-10-23T08:14:08;6.83;;;3.40;;
3068;SDS011;1545;51.728;8.796;2022-10-23T08:16:35;9.23;;;3.30;;
3068;SDS011;1545;51.728;8.796;2022-10-23T08:19:02;15.37;;;3.50;;
3068;SDS011;1545;51.728;8.796;2022-10-23T08:21:28;7.60;;;3.07;;
3068;SDS011;1545;51.728;8.796;2022-10-23T08:23:54;10.93;;;3.23;;
3068;SDS011;1545;51.728;8.796;2022-10-23T08:26:21;14.43;;;3.47;;
3068;SDS011;1545;51.728;8.796;2022-10-23T08:28:48;13.93;;;3.30;;
3068;SDS011;1545;51.728;8.796;2022-10-23T08:31:15;6.50;;;2.73;;
3068;SDS011;1545;51.728;8.796;2022-10-23T08:33:43;11.97;;;3.17;;
3068;SDS011;1545;51.728;8.796;2022-10-23T08:36:15;5.47;;;3.00;;
3068;SDS011;1545;51.728;8.796;2022-10-23T08:38:43;9.77;;;3.20;;
3068;SDS011;1545;51.728;8.796;2022-10-23T08:41:15;8.30;;;2.83;;
3068;SDS011;1545;51.728;8.796;2022-10-23T08:43:45;6.13;;;3.17;;
3068;SDS011;1545;51.728;8.796;2022-10-23T08:46:16;17.47;;;3.30;;
3068;SDS011;1545;51.728;8.796;2022-10-23T08:48:47;13.53;;;3.17;;
3068;SDS011;1545;51.728;8.796;2022-10-23T08:51:20;9.67;;;2.80;;
3068;SDS011;1545;51.728;8.796;2022-10-23T08:53:55;5.17;;;3.00;;
3068;SDS011;1545;51.728;8.796;2022-10-23T08:56:27;8.10;;;3.10;;
3068;SDS011;1545;51.728;8.796;2022-10-23T08:59:10;7.57;;;3.00;;
3068;SDS011;1545;51.728;8.796;2022-10-23T09:04:35;9.07;;;3.13;;
3068;SDS011;1545;51.728;8.796;2022-10-23T09:07:06;7.63;;;3.10;;
3068;SDS011;1545;51.728;8.796;2022-10-23T09:09:37;6.47;;;3.37;;
3068;SDS011;1545;51.728;8.796;2022-10-23T09:12:34;7.27;;;3.17;;
3068;SDS011;1545;51.728;8.796;2022-10-23T09:15:19;12.77;;;2.90;;
3068;SDS011;1545;51.728;8.796;2022-10-23T09:17:53;9.43;;;3.10;;
3068;SDS011;1545;51.728;8.796;2022-10-23T09:20:24;4.23;;;2.70;;
3068;SDS011;1545;51.728;8.796;2022-10-23T09:22:59;10.90;;;2.67;;
3068;SDS011;1545;51.728;8.796;2022-10-23T09:25:30;11.47;;;3.00;;
3068;SDS011;1545;51.728;8.796;2022-10-23T09:28:00;10.03;;;2.97;;
3068;SDS011;1545;51.728;8.796;2022-10-23T09:30:37;8.33;;;3.07;;
3068;SDS011;1545;51.728;8.796;2022-10-23T09:33:24;13.87;;;2.70;;
3068;SDS011;1545;51.728;8.796;2022-10-23T09:35:56;8.10;;;2.80;;
3068;SDS011;1545;51.728;8.796;2022-10-23T09:38:30;21.07;;;3.00;;
3068;SDS011;1545;51.728;8.796;2022-10-23T09:43:39;8.87;;;3.20;;
3068;SDS011;1545;51.728;8.796;2022-10-23T09:46:05;9.97;;;2.80;;
3068;SDS011;1545;51.728;8.796;2022-10-23T09:48:32;4.43;;;2.57;;
3068;SDS011;1545;51.728;8.796;2022-10-23T09:50:59;10.27;;;2.83;;
3068;SDS011;1545;51.728;8.796;2022-10-23T09:53:31;6.70;;;3.00;;
3068;SDS011;1545;51.728;8.796;2022-10-23T09:56:32;14.43;;;2.77;;
3068;SDS011;1545;51.728;8.796;2022-10-23T09:59:04;15.00;;;2.83;;
3068;SDS011;1545;51.728;8.796;2022-10-23T10:01:47;7.00;;;2.67;;
3068;SDS011;1545;51.728;8.796;2022-10-23T10:04:16;12.87;;;3.17;;
3068;SDS011;1545;51.728;8.796;2022-10-23T10:06:42;13.70;;;2.80;;
3068;SDS011;1545;51.728;8.796;2022-10-23T10:09:12;7.37;;;2.97;;
3068;SDS011;1545;51.728;8.796;2022-10-23T10:11:45;16.07;;;3.10;;
3068;SDS011;1545;51.728;8.796;2022-10-23T10:17:27;8.00;;;3.07;;
3068;SDS011;1545;51.728;8.796;2022-10-23T10:20:03;8.10;;;3.00;;
3068;SDS011;1545;51.728;8.796;2022-10-23T10:22:41;10.30;;;2.87;;
3068;SDS011;1545;51.728;8.796;2022-10-23T10:25:19;8.77;;;3.03;;
3068;SDS011;1545;51.728;8.796;2022-10-23T10:27:57;7.33;;;3.10;;
3068;SDS011;1545;51.728;8.796;2022-10-23T10:30:46;16.53;;;3.73;;
3068;SDS011;1545;51.728;8.796;2022-10-23T10:39:19;3.97;;;2.67;;
3068;SDS011;1545;51.728;8.796;2022-10-23T10:41:58;7.63;;;3.07;;
3068;SDS011;1545;51.728;8.796;2022-10-23T10:47:14;11.57;;;2.90;;
3068;SDS011;1545;51.728;8.796;2022-10-23T10:49:45;8.90;;;2.77;;
3068;SDS011;1545;51.728;8.796;2022-10-23T10:55:32;9.93;;;3.00;;
3068;SDS011;1545;51.728;8.796;2022-10-23T11:00:39;10.33;;;2.77;;
3068;SDS011;1545;51.728;8.796;2022-10-23T11:06:00;5.57;;;2.77;;
3068;SDS011;1545;51.728;8.796;2022-10-23T11:08:34;6.93;;;3.00;;
3068;SDS011;1545;51.728;8.796;2022-10-23T11:11:05;7.10;;;3.10;;
3068;SDS011;1545;51.728;8.796;2022-10-23T11:13:38;6.43;;;2.50;;
3068;SDS011;1545;51.728;8.796;2022-10-23T11:16:39;5.23;;;2.70;;
3068;SDS011;1545;51.728;8.796;2022-10-23T11:21:55;8.43;;;2.90;;
3068;SDS011;1545;51.728;8.796;2022-10-23T11:27:26;11.87;;;2.70;;
3068;SDS011;1545;51.728;8.796;2022-10-23T11:30:21;4.60;;;2.30;;
3068;SDS011;1545;51.728;8.796;2022-10-23T11:35:30;11.77;;;2.83;;
3068;SDS011;1545;51.728;8.796;2022-10-23T11:40:52;11.23;;;3.07;;
3068;SDS011;1545;51.728;8.796;2022-10-23T11:43:24;15.00;;;3.13;;
3068;SDS011;1545;51.728;8.796;2022-10-23T11:45:54;6.47;;;2.50;;
3068;SDS011;1545;51.728;8.796;2022-10-23T11:48:37;10.63;;;3.13;;
3068;SDS011;1545;51.728;8.796;2022-10-23T11:53:51;4.73;;;2.30;;
3068;SDS011;1545;51.728;8.796;2022-10-23T12:04:00;10.77;;;3.00;;
3068;SDS011;1545;51.728;8.796;2022-10-23T12:09:23;7.73;;;2.67;;
3068;SDS011;1545;51.728;8.796;2022-10-23T12:14:34;6.93;;;2.40;;
3068;SDS011;1545;51.728;8.796;2022-10-23T12:16:59;13.80;;;2.50;;
3068;SDS011;1545;51.728;8.796;2022-10-23T12:19:29;8.70;;;2.73;;
3068;SDS011;1545;51.728;8.796;2022-10-23T12:22:11;7.53;;;2.77;;
3068;SDS011;1545;51.728;8.796;2022-10-23T12:24:40;11.97;;;2.50;;
3068;SDS011;1545;51.728;8.796;2022-10-23T12:30:02;5.43;;;2.47;;
3068;SDS011;1545;51.728;8.796;2022-10-23T12:32:42;8.60;;;2.87;;
3068;SDS011;1545;51.728;8.796;2022-10-23T12:35:47;8.37;;;2.50;;
3068;SDS011;1545;51.728;8.796;2022-10-23T12:38:28;14.10;;;2.50;;
3068;SDS011;1545;51.728;8.796;2022-10-23T12:41:02;9.97;;;3.00;;
3068;SDS011;1545;51.728;8.796;2022-10-23T12:43:35;11.37;;;2.80;;
3068;SDS011;1545;51.728;8.796;2022-10-23T12:48:54;4.73;;;2.60;;
3068;SDS011;1545;51.728;8.796;2022-10-23T12:51:25;6.07;;;2.17;;
3068;SDS011;1545;51.728;8.796;2022-10-23T12:53:52;13.43;;;2.50;;
3068;SDS011;1545;51.728;8.796;2022-10-23T12:56:18;8.53;;;2.57;;
3068;SDS011;1545;51.728;8.796;2022-10-23T12:58:51;10.53;;;2.50;;
3068;SDS011;1545;51.728;8.796;2022-10-23T13:01:23;9.93;;;2.77;;
3068;SDS011;1545;51.728;8.796;2022-10-23T13:04:00;7.97;;;2.50;;
3068;SDS011;1545;51.728;8.796;2022-10-23T13:06:45;5.97;;;2.70;;
3068;SDS011;1545;51.728;8.796;2022-10-23T13:09:17;9.90;;;2.40;;
3068;SDS011;1545;51.728;8.796;2022-10-23T13:11:50;6.50;;;2.77;;
3068;SDS011;1545;51.728;8.796;2022-10-23T13:14:27;8.67;;;2.37;;
3068;SDS011;1545;51.728;8.796;2022-10-23T13:17:00;7.70;;;2.73;;
3068;SDS011;1545;51.728;8.796;2022-10-23T13:19:27;14.60;;;2.60;;
3068;SDS011;1545;51.728;8.796;2022-10-23T13:21:52;7.17;;;2.30;;
3068;SDS011;1545;51.728;8.796;2022-10-23T13:24:18;5.87;;;2.33;;
3068;SDS011;1545;51.728;8.796;2022-10-23T13:26:45;9.67;;;2.50;;
3068;SDS011;1545;51.728;8.796;2022-10-23T13:29:22;7.47;;;2.53;;
3068;SDS011;1545;51.728;8.796;2022-10-23T13:31:51;10.70;;;2.73;;
3068;SDS011;1545;51.728;8.796;2022-10-23T13:34:24;5.77;;;2.50;;
3068;SDS011;1545;51.728;8.796;2022-10-23T13:39:23;15.50;;;2.73;;
3068;SDS011;1545;51.728;8.796;2022-10-23T13:41:50;9.67;;;2.70;;
3068;SDS011;1545;51.728;8.796;2022-10-23T13:44:17;13.03;;;2.90;;
3068;SDS011;1545;51.728;8.796;2022-10-23T13:46:45;19.00;;;3.00;;
3068;SDS011;1545;51.728;8.796;2022-10-23T13:49:12;17.17;;;3.03;;
3068;SDS011;1545;51.728;8.796;2022-10-23T13:51:42;8.53;;;2.90;;
3068;SDS011;1545;51.728;8.796;2022-10-23T13:54:15;12.60;;;3.00;;
3068;SDS011;1545;51.728;8.796;2022-10-23T13:56:42;18.67;;;3.20;;
3068;SDS011;1545;51.728;8.796;2022-10-23T13:59:09;14.50;;;3.27;;
3068;SDS011;1545;51.728;8.796;2022-10-23T14:01:35;32.47;;;4.10;;
3068;SDS011;1545;51.728;8.796;2022-10-23T14:04:01;10.03;;;2.63;;
3068;SDS011;1545;51.728;8.796;2022-10-23T14:06:29;13.80;;;3.03;;
3068;SDS011;1545;51.728;8.796;2022-10-23T14:08:55;17.90;;;3.07;;
3068;SDS011;1545;51.728;8.796;2022-10-23T14:11:21;17.37;;;2.90;;
3068;SDS011;1545;51.728;8.796;2022-10-23T14:13:47;8.10;;;2.73;;
3068;SDS011;1545;51.728;8.796;2022-10-23T14:16:13;7.03;;;2.70;;
3068;SDS011;1545;51.728;8.796;2022-10-23T14:18:40;16.10;;;2.73;;
3068;SDS011;1545;51.728;8.796;2022-10-23T14:21:06;21.50;;;3.03;;
3068;SDS011;1545;51.728;8.796;2022-10-23T14:23:34;9.97;;;2.50;;
3068;SDS011;1545;51.728;8.796;2022-10-23T14:26:00;7.73;;;2.57;;
3068;SDS011;1545;51.728;8.796;2022-10-23T14:28:30;8.40;;;2.80;;
3068;SDS011;1545;51.728;8.796;2022-10-23T14:30:56;4.33;;;2.20;;
3068;SDS011;1545;51.728;8.796;2022-10-23T14:33:22;15.50;;;3.07;;
3068;SDS011;1545;51.728;8.796;2022-10-23T14:35:50;7.83;;;2.63;;
3068;SDS011;1545;51.728;8.796;2022-10-23T14:38:16;4.53;;;3.23;;
3068;SDS011;1545;51.728;8.796;2022-10-23T14:40:42;10.63;;;3.20;;
3068;SDS011;1545;51.728;8.796;2022-10-23T14:43:08;6.07;;;2.50;;
3068;SDS011;1545;51.728;8.796;2022-10-23T14:45:33;16.60;;;3.20;;
3068;SDS011;1545;51.728;8.796;2022-10-23T14:47:59;5.67;;;2.57;;
3068;SDS011;1545;51.728;8.796;2022-10-23T14:50:26;17.10;;;2.87;;
3068;SDS011;1545;51.728;8.796;2022-10-23T14:52:52;10.13;;;2.80;;
3068;SDS011;1545;51.728;8.796;2022-10-23T14:55:17;13.13;;;2.83;;
3068;SDS011;1545;51.728;8.796;2022-10-23T14:57:43;5.17;;;2.30;;
3068;SDS011;1545;51.728;8.796;2022-10-23T15:00:08;27.40;;;3.37;;
3068;SDS011;1545;51.728;8.796;2022-10-23T15:02:35;12.13;;;3.30;;
3068;SDS011;1545;51.728;8.796;2022-10-23T15:05:01;14.47;;;3.27;;
3068;SDS011;1545;51.728;8.796;2022-10-23T15:07:29;6.17;;;2.80;;
3068;SDS011;1545;51.728;8.796;2022-10-23T15:09:54;21.10;;;3.30;;
3068;SDS011;1545;51.728;8.796;2022-10-23T15:12:20;11.70;;;3.00;;
3068;SDS011;1545;51.728;8.796;2022-10-23T15:14:45;5.63;;;2.70;;
3068;SDS011;1545;51.728;8.796;2022-10-23T15:17:11;15.40;;;3.13;;
3068;SDS011;1545;51.728;8.796;2022-10-23T15:19:36;15.00;;;3.40;;
3068;SDS011;1545;51.728;8.796;2022-10-23T15:22:02;13.47;;;3.67;;
3068;SDS011;1545;51.728;8.796;2022-10-23T15:24:28;19.13;;;3.67;;
3068;SDS011;1545;51.728;8.796;2022-10-23T15:26:53;6.77;;;3.07;;
3068;SDS011;1545;51.728;8.796;2022-10-23T15:29:19;17.03;;;3.47;;
3068;SDS011;1545;51.728;8.796;2022-10-23T15:31:54;9.60;;;3.37;;
3068;SDS011;1545;51.728;8.796;2022-10-23T15:34:23;9.00;;;3.37;;
3068;SDS011;1545;51.728;8.796;2022-10-23T15:36:50;15.17;;;3.10;;
3068;SDS011;1545;51.728;8.796;2022-10-23T15:39:18;11.10;;;3.37;;
3068;SDS011;1545;51.728;8.796;2022-10-23T15:41:46;8.00;;;3.53;;
3068;SDS011;1545;51.728;8.796;2022-10-23T15:44:14;10.13;;;3.10;;
3068;SDS011;1545;51.728;8.796;2022-10-23T15:46:41;11.20;;;3.10;;
3068;SDS011;1545;51.728;8.796;2022-10-23T15:49:07;5.77;;;3.03;;
3068;SDS011;1545;51.728;8.796;2022-10-23T15:51:33;10.10;;;3.00;;
3068;SDS011;1545;51.728;8.796;2022-10-23T15:54:01;5.83;;;3.30;;
3068;SDS011;1545;51.728;8.796;2022-10-23T15:56:27;12.00;;;3.17;;
3068;SDS011;1545;51.728;8.796;2022-10-23T15:58:53;9.70;;;3.67;;
3068;SDS011;1545;51.728;8.796;2022-10-23T16:01:18;10.17;;;3.40;;
3068;SDS011;1545;51.728;8.796;2022-10-23T16:03:44;10.53;;;3.10;;
3068;SDS011;1545;51.728;8.796;2022-10-23T16:06:10;10.87;;;3.00;;
3068;SDS011;1545;51.728;8.796;2022-10-23T16:08:37;11.63;;;3.43;;
3068;SDS011;1545;51.728;8.796;2022-10-23T16:11:04;9.10;;;3.00;;
3068;SDS011;1545;51.728;8.796;2022-10-23T16:14:03;9.37;;;2.70;;
3068;SDS011;1545;51.728;8.796;2022-10-23T16:16:29;10.37;;;3.60;;
3068;SDS011;1545;51.728;8.796;2022-10-23T16:18:59;11.33;;;3.10;;
3068;SDS011;1545;51.728;8.796;2022-10-23T16:21:28;19.77;;;3.17;;
3068;SDS011;1545;51.728;8.796;2022-10-23T16:23:57;6.30;;;3.30;;
3068;SDS011;1545;51.728;8.796;2022-10-23T16:26:24;10.80;;;3.00;;
3068;SDS011;1545;51.728;8.796;2022-10-23T16:28:54;9.33;;;2.73;;
3068;SDS011;1545;51.728;8.796;2022-10-23T16:31:23;11.00;;;3.27;;
3068;SDS011;1545;51.728;8.796;2022-10-23T16:33:50;12.60;;;3.47;;
3068;SDS011;1545;51.728;8.796;2022-10-23T16:36:17;9.23;;;3.10;;